Time;durP1;ratioP1;P1;durP2;ratioP2;P2;SDS_P1;SDS_P2;PMS_P1;PMS_P2;Temp;Humidity;BMP_temperature;BMP_pressure;BME280_temperature;BME280_humidity;BME280_pressure;Samples;Min_cycle;Max_cycle;Signal;HPM_P1;HPM_P2
2024/04/11 00:01:07;;;;;;;0.40;0.40;;;11.20;99.90;;;;;;5484658;26;19998;-74
2024/04/11 00:03:34;;;;;;;0.40;0.40;;;11.20;99.90;;;;;;5486704;26;20020;-76
2024/04/11 00:06:01;;;;;;;0.30;0.30;;;11.20;99.90;;;;;;5484432;26;20506;-74
2024/04/11 00:08:29;;;;;;;0.30;0.30;;;11.20;99.90;;;;;;5473906;26;20026;-75
2024/04/11 00:10:58;;;;;;;0.40;0.40;;;11.20;99.90;;;;;;5481156;26;20368;-75
2024/04/11 00:13:25;;;;;;;0.43;0.43;;;11.20;99.90;;;;;;5484457;26;20058;-77
2024/04/11 00:15:53;;;;;;;0.35;0.35;;;11.20;99.90;;;;;;5482049;26;20035;-76
2024/04/11 00:18:25;;;;;;;0.45;0.45;;;11.20;99.90;;;;;;5486037;26;20025;-75
2024/04/11 00:20:55;;;;;;;0.40;0.40;;;11.20;99.90;;;;;;5481580;26;20476;-76
2024/04/11 00:23:23;;;;;;;0.50;0.50;;;11.20;99.90;;;;;;5488183;26;20386;-75
2024/04/11 00:25:57;;;;;;;0.30;0.30;;;11.20;99.90;;;;;;5484992;26;20023;-77
2024/04/11 00:28:25;;;;;;;0.30;0.30;;;11.30;99.90;;;;;;5485209;26;20025;-76
2024/04/11 00:30:53;;;;;;;0.57;0.57;;;11.20;99.90;;;;;;5484328;26;20026;-76
2024/04/11 00:33:21;;;;;;;0.30;0.30;;;11.20;99.90;;;;;;5485417;26;20030;-80
2024/04/11 00:35:50;;;;;;;0.30;0.30;;;11.30;99.90;;;;;;5484753;26;20018;-80
2024/04/11 00:38:21;;;;;;;1.90;0.35;;;11.30;99.90;;;;;;5485227;26;20058;-81
2024/04/11 00:40:59;;;;;;;0.40;0.40;;;11.30;99.90;;;;;;5480046;26;20034;-81
2024/04/11 00:43:32;;;;;;;0.30;0.30;;;11.30;99.90;;;;;;5476671;26;20517;-80
2024/04/11 00:45:59;;;;;;;0.35;0.35;;;11.30;99.90;;;;;;5483275;26;20377;-80
2024/04/11 00:48:26;;;;;;;0.30;0.30;;;11.30;99.90;;;;;;5485582;26;20042;-80
2024/04/11 00:50:54;;;;;;;1.00;0.93;;;11.30;99.90;;;;;;5489076;26;20485;-80
2024/04/11 00:53:23;;;;;;;0.43;0.43;;;11.30;99.90;;;;;;5483231;26;20480;-80
2024/04/11 00:55:51;;;;;;;0.43;0.43;;;11.30;99.90;;;;;;5479678;26;20032;-80
2024/04/11 00:58:18;;;;;;;0.50;0.50;;;11.30;99.90;;;;;;5485904;26;20026;-78
2024/04/11 01:00:45;;;;;;;0.30;0.30;;;11.30;99.90;;;;;;5484927;26;20035;-79
2024/04/11 01:03:12;;;;;;;0.40;0.40;;;11.30;99.90;;;;;;5484068;26;20127;-79
2024/04/11 01:05:39;;;;;;;0.25;0.25;;;11.40;99.90;;;;;;5488414;26;20030;-79
2024/04/11 01:08:07;;;;;;;0.40;0.40;;;11.40;99.90;;;;;;5486568;26;20483;-80
2024/04/11 01:10:35;;;;;;;0.40;0.40;;;11.50;99.90;;;;;;5483758;26;20402;-80
2024/04/11 01:13:05;;;;;;;0.75;0.52;;;11.50;99.90;;;;;;5486018;26;20535;-80
2024/04/11 01:15:34;;;;;;;0.40;0.40;;;11.60;99.90;;;;;;5482923;26;20039;-78
2024/04/11 01:18:01;;;;;;;0.30;0.30;;;11.60;99.90;;;;;;5482999;26;20025;-80
2024/04/11 01:20:28;;;;;;;0.40;0.40;;;11.60;99.90;;;;;;5484750;26;20389;-80
2024/04/11 01:22:55;;;;;;;0.30;0.30;;;11.60;99.90;;;;;;5488210;26;20039;-79
2024/04/11 01:25:22;;;;;;;0.30;0.30;;;11.60;99.90;;;;;;5480959;26;20346;-79
2024/04/11 01:27:51;;;;;;;0.40;0.40;;;11.70;99.90;;;;;;5487590;26;20030;-80
2024/04/11 01:30:18;;;;;;;0.20;0.20;;;11.60;99.90;;;;;;5479579;26;20035;-80
2024/04/11 01:32:45;;;;;;;0.40;0.40;;;11.70;99.90;;;;;;5485391;26;20039;-79
2024/04/11 01:35:12;;;;;;;0.35;0.35;;;11.70;99.90;;;;;;5482220;26;20025;-80
2024/04/11 01:37:39;;;;;;;0.30;0.30;;;11.70;99.90;;;;;;5452688;26;20025;-79
2024/04/11 01:40:08;;;;;;;0.40;0.40;;;11.70;99.90;;;;;;5484710;26;20022;-83
2024/04/11 01:42:40;;;;;;;1.25;1.15;;;11.60;99.90;;;;;;5485594;26;20503;-81
2024/04/11 01:45:07;;;;;;;0.55;0.55;;;11.70;99.90;;;;;;5484383;26;20102;-81
2024/04/11 01:47:38;;;;;;;0.28;0.28;;;11.60;99.90;;;;;;5485301;26;20045;-81
2024/04/11 01:50:06;;;;;;;5.28;4.32;;;11.70;99.90;;;;;;5485988;26;20034;-79
2024/04/11 01:52:33;;;;;;;0.43;0.43;;;11.70;99.90;;;;;;5485589;26;20034;-79
2024/04/11 01:55:00;;;;;;;0.30;0.30;;;11.70;99.90;;;;;;5482194;26;20012;-81
2024/04/11 01:57:27;;;;;;;0.40;0.40;;;11.60;99.90;;;;;;5480140;26;20147;-79
2024/04/11 01:59:55;;;;;;;0.40;0.40;;;11.60;99.90;;;;;;5484281;26;20375;-78
2024/04/11 02:02:22;;;;;;;0.20;0.20;;;11.60;99.90;;;;;;5477482;26;20476;-79
2024/04/11 02:04:49;;;;;;;1.75;1.65;;;11.70;99.90;;;;;;5421598;26;19998;-80
2024/04/11 02:07:16;;;;;;;0.40;0.40;;;11.60;99.90;;;;;;5480940;26;20388;-80
2024/04/11 02:09:43;;;;;;;0.50;0.50;;;11.60;99.90;;;;;;5440247;26;20028;-81
2024/04/11 02:12:11;;;;;;;0.40;0.40;;;11.70;99.90;;;;;;5482778;26;20027;-79
2024/04/11 02:14:39;;;;;;;0.40;0.40;;;11.70;99.90;;;;;;5482921;26;20025;-78
2024/04/11 02:17:07;;;;;;;0.30;0.30;;;11.70;99.90;;;;;;5483226;26;20041;-79
2024/04/11 02:19:37;;;;;;;0.40;0.40;;;12.10;99.90;;;;;;5480031;26;20008;-79
2024/04/11 02:22:07;;;;;;;1.85;1.38;;;11.70;99.90;;;;;;5476389;26;20028;-81
2024/04/11 02:24:36;;;;;;;1.05;0.73;;;11.80;99.90;;;;;;5476604;26;20022;-80
2024/04/11 02:27:03;;;;;;;0.30;0.30;;;11.80;99.90;;;;;;5481830;26;20038;-79
2024/04/11 02:29:30;;;;;;;0.30;0.30;;;11.80;99.90;;;;;;5483414;26;20026;-78
2024/04/11 02:31:57;;;;;;;0.73;0.73;;;11.90;99.90;;;;;;5483060;25;20038;-78
2024/04/11 02:34:26;;;;;;;0.40;0.40;;;11.80;99.90;;;;;;5482952;26;20086;-78
2024/04/11 02:36:53;;;;;;;0.30;0.30;;;11.80;99.90;;;;;;5479702;26;20030;-78
2024/04/11 02:39:20;;;;;;;0.45;0.45;;;11.80;99.90;;;;;;5484492;26;20022;-79
2024/04/11 02:41:47;;;;;;;0.30;0.30;;;11.90;99.90;;;;;;5479717;26;20049;-78
2024/04/11 02:44:19;;;;;;;0.20;0.20;;;11.90;99.90;;;;;;5481658;26;20034;-80
2024/04/11 02:46:46;;;;;;;0.40;0.40;;;11.90;99.90;;;;;;5444112;26;20013;-78
2024/04/11 02:49:15;;;;;;;1.23;0.80;;;12.00;99.90;;;;;;5421247;26;20034;-80
2024/04/11 02:51:43;;;;;;;1.98;0.82;;;12.00;99.90;;;;;;5475506;26;19999;-78
2024/04/11 02:54:10;;;;;;;0.35;0.35;;;12.00;99.90;;;;;;5480584;26;20481;-79
2024/04/11 02:56:38;;;;;;;0.38;0.38;;;12.00;99.90;;;;;;5484831;26;20022;-80
2024/04/11 02:59:05;;;;;;;0.30;0.30;;;12.20;99.90;;;;;;5480907;26;20037;-79
2024/04/11 03:01:32;;;;;;;0.20;0.20;;;12.00;99.90;;;;;;5482595;26;20456;-80
2024/04/11 03:04:01;;;;;;;1.38;1.33;;;12.10;99.90;;;;;;5480358;26;20022;-81
2024/04/11 03:06:31;;;;;;;0.30;0.30;;;12.10;99.90;;;;;;5452896;26;19999;-81
2024/04/11 03:08:58;;;;;;;0.45;0.45;;;12.20;99.90;;;;;;5481740;26;20030;-80
2024/04/11 03:11:25;;;;;;;0.50;0.50;;;12.40;99.90;;;;;;5483182;26;20022;-80
2024/04/11 03:13:58;;;;;;;0.30;0.30;;;12.00;99.90;;;;;;5483852;26;20475;-80
2024/04/11 03:16:30;;;;;;;0.57;0.47;;;12.10;99.90;;;;;;5484398;26;20065;-80
2024/04/11 03:18:57;;;;;;;5.00;0.73;;;12.20;99.90;;;;;;5482274;26;20043;-81
2024/04/11 03:21:24;;;;;;;0.55;0.55;;;12.30;99.90;;;;;;5481791;26;20004;-78
2024/04/11 03:23:52;;;;;;;0.30;0.30;;;12.10;99.90;;;;;;5486221;26;20012;-81
2024/04/11 03:26:19;;;;;;;0.30;0.30;;;12.10;99.90;;;;;;5487466;26;20053;-80
2024/04/11 03:28:46;;;;;;;0.30;0.30;;;12.50;99.90;;;;;;5484379;26;20053;-80
2024/04/11 03:31:17;;;;;;;0.35;0.35;;;12.20;99.90;;;;;;5488148;26;20037;-80
2024/04/11 03:33:49;;;;;;;0.35;0.35;;;12.30;99.90;;;;;;5484654;26;20022;-80
2024/04/11 03:36:19;;;;;;;0.40;0.40;;;12.10;99.90;;;;;;5479731;26;20049;-79
2024/04/11 03:38:46;;;;;;;0.28;0.28;;;12.40;99.90;;;;;;5481175;26;20502;-79
2024/04/11 03:41:14;;;;;;;0.30;0.30;;;12.30;99.90;;;;;;5488328;26;20046;-80
2024/04/11 03:43:41;;;;;;;0.32;0.32;;;12.30;99.90;;;;;;5488779;26;20383;-80
2024/04/11 03:46:09;;;;;;;0.57;0.57;;;12.30;99.90;;;;;;5487994;26;20022;-81
2024/04/11 03:48:38;;;;;;;0.45;0.45;;;12.20;99.90;;;;;;5488667;26;20053;-80
2024/04/11 03:51:17;;;;;;;0.30;0.30;;;12.40;99.90;;;;;;5498997;25;20007;-80
2024/04/11 03:53:51;;;;;;;0.50;0.50;;;12.30;99.90;;;;;;5505761;26;19998;-80
2024/04/11 03:56:22;;;;;;;0.30;0.30;;;12.20;99.90;;;;;;5498777;26;20026;-79
2024/04/11 03:58:50;;;;;;;1.55;0.57;;;12.40;99.90;;;;;;5488427;26;20022;-80
2024/04/11 04:01:18;;;;;;;4.85;1.50;;;12.40;99.90;;;;;;5484039;26;20490;-80
2024/04/11 04:03:51;;;;;;;0.40;0.40;;;12.50;99.90;;;;;;5449798;26;20023;-75
2024/04/11 04:06:19;;;;;;;0.57;0.57;;;12.50;99.90;;;;;;5484875;26;20013;-75
2024/04/11 04:08:47;;;;;;;2.40;0.47;;;12.30;99.90;;;;;;5482618;26;20006;-77
2024/04/11 04:11:16;;;;;;;0.65;0.65;;;12.30;99.90;;;;;;5482353;26;19998;-75
2024/04/11 04:13:43;;;;;;;1.42;1.35;;;12.30;99.90;;;;;;5486942;26;20029;-75
2024/04/11 04:16:12;;;;;;;0.70;0.70;;;12.30;99.90;;;;;;5485327;26;20026;-74
2024/04/11 04:18:41;;;;;;;3.40;3.05;;;12.20;99.90;;;;;;5483497;26;20033;-74
2024/04/11 04:21:08;;;;;;;2.53;2.33;;;12.20;99.90;;;;;;5487687;26;20392;-75
2024/04/11 04:23:35;;;;;;;2.88;2.65;;;12.40;99.90;;;;;;5488361;25;20038;-74
2024/04/11 04:26:08;;;;;;;0.65;0.65;;;12.40;99.90;;;;;;5482606;26;20006;-75
2024/04/11 04:28:39;;;;;;;2.08;0.75;;;12.20;99.90;;;;;;5484747;26;20030;-74
2024/04/11 04:31:20;;;;;;;0.43;0.43;;;12.10;99.90;;;;;;5482477;26;20026;-75
2024/04/11 04:33:50;;;;;;;0.35;0.35;;;12.10;99.90;;;;;;5483215;26;20041;-74
2024/04/11 04:36:20;;;;;;;2.38;1.38;;;12.00;99.90;;;;;;5492169;26;20023;-74
2024/04/11 04:38:49;;;;;;;0.40;0.40;;;11.90;99.90;;;;;;5484351;26;20005;-74
2024/04/11 04:41:17;;;;;;;0.40;0.40;;;12.00;99.90;;;;;;5481690;26;20002;-74
2024/04/11 04:43:53;;;;;;;0.30;0.30;;;11.70;99.90;;;;;;5484320;26;20037;-76
2024/04/11 04:46:21;;;;;;;0.40;0.40;;;12.10;99.90;;;;;;5484748;26;19998;-75
2024/04/11 04:48:48;;;;;;;5.07;1.45;;;11.60;99.90;;;;;;5483231;26;20025;-73
2024/04/11 04:51:18;;;;;;;0.40;0.40;;;11.50;99.90;;;;;;5480583;26;20023;-74
2024/04/11 04:53:45;;;;;;;0.40;0.40;;;11.40;99.90;;;;;;5483698;26;20025;-76
2024/04/11 04:56:13;;;;;;;0.60;0.60;;;11.20;99.90;;;;;;5444694;26;20800;-75
2024/04/11 04:58:40;;;;;;;1.15;1.15;;;11.20;99.90;;;;;;5485579;26;20026;-77
2024/04/11 05:01:08;;;;;;;0.30;0.30;;;11.10;99.90;;;;;;5485926;26;20472;-78
2024/04/11 05:03:35;;;;;;;0.40;0.40;;;11.00;99.90;;;;;;5487182;26;20029;-76
2024/04/11 05:06:02;;;;;;;0.52;0.50;;;11.10;99.90;;;;;;5481588;26;20448;-78
2024/04/11 05:08:32;;;;;;;0.43;0.43;;;11.00;99.90;;;;;;5485172;26;20026;-73
2024/04/11 05:10:59;;;;;;;0.50;0.50;;;11.00;99.90;;;;;;5484543;26;20483;-75
2024/04/11 05:13:32;;;;;;;0.55;0.55;;;10.90;99.90;;;;;;5488276;26;20034;-82
2024/04/11 05:16:06;;;;;;;0.57;0.57;;;11.00;99.90;;;;;;5492197;26;20029;-80
2024/04/11 05:18:37;;;;;;;2.47;1.50;;;10.90;99.90;;;;;;5487832;26;20492;-80
2024/04/11 05:21:09;;;;;;;0.40;0.40;;;10.90;99.90;;;;;;5486639;26;20026;-80
2024/04/11 05:23:38;;;;;;;0.32;0.32;;;10.90;99.90;;;;;;5490701;26;20038;-82
2024/04/11 05:26:13;;;;;;;0.50;0.50;;;10.90;99.90;;;;;;5489445;26;20483;-84
2024/04/11 05:28:44;;;;;;;0.40;0.40;;;10.80;99.90;;;;;;5488814;26;20030;-82
2024/04/11 05:31:16;;;;;;;0.32;0.32;;;10.90;99.90;;;;;;5459653;26;20030;-82
2024/04/11 05:33:53;;;;;;;0.40;0.40;;;11.00;99.90;;;;;;5492373;26;20026;-84
2024/04/11 05:36:24;;;;;;;;;;;10.80;99.90;;;;;;5491976;26;20030;-82
2024/04/11 05:38:52;;;;;;;0.50;0.50;;;11.00;99.90;;;;;;5488053;26;19945;-82
2024/04/11 05:41:19;;;;;;;0.40;0.40;;;10.80;99.90;;;;;;5492829;26;20030;-83
2024/04/11 05:43:49;;;;;;;0.35;0.35;;;11.00;99.90;;;;;;5487119;26;20034;-83
2024/04/11 05:46:20;;;;;;;0.50;0.50;;;10.90;99.90;;;;;;5492302;26;20034;-82
2024/04/11 05:48:48;;;;;;;0.80;0.77;;;10.90;99.90;;;;;;5498897;26;20030;-83
2024/04/11 05:51:20;;;;;;;0.73;0.73;;;11.00;99.90;;;;;;5495096;26;20035;-81
2024/04/11 05:53:48;;;;;;;0.30;0.30;;;10.90;99.90;;;;;;5493978;26;20026;-81
2024/04/11 05:56:15;;;;;;;0.57;0.57;;;11.00;99.90;;;;;;5491092;26;20023;-81
2024/04/11 05:58:45;;;;;;;0.40;0.40;;;11.00;99.90;;;;;;5500836;26;20041;-80
2024/04/11 06:01:16;;;;;;;0.52;0.52;;;11.10;99.90;;;;;;5500812;26;19998;-82
2024/04/11 06:03:46;;;;;;;0.68;0.55;;;11.20;99.90;;;;;;5496461;26;20038;-79
2024/04/11 06:06:14;;;;;;;0.30;0.30;;;11.10;99.90;;;;;;5489159;26;20029;-78
2024/04/11 06:08:43;;;;;;;0.40;0.40;;;10.90;99.90;;;;;;5491671;26;20031;-80
2024/04/11 06:11:11;;;;;;;0.50;0.50;;;10.90;99.90;;;;;;5490663;26;20035;-80
2024/04/11 06:13:38;;;;;;;0.40;0.40;;;10.90;99.90;;;;;;5491152;26;20039;-84
2024/04/11 06:16:06;;;;;;;0.60;0.60;;;11.00;99.90;;;;;;5490543;26;20057;-81
2024/04/11 06:18:37;;;;;;;0.30;0.30;;;11.00;99.90;;;;;;5492437;26;20036;-81
2024/04/11 06:21:04;;;;;;;0.30;0.30;;;11.00;99.90;;;;;;5488371;26;20038;-79
2024/04/11 06:23:32;;;;;;;0.30;0.30;;;11.10;99.90;;;;;;5495011;26;20023;-80
2024/04/11 06:25:59;;;;;;;0.30;0.30;;;11.00;99.90;;;;;;5485678;26;20022;-79
2024/04/11 06:28:26;;;;;;;0.50;0.50;;;11.10;99.90;;;;;;5485972;26;20375;-80
2024/04/11 06:30:54;;;;;;;0.45;0.45;;;11.10;99.90;;;;;;5491925;26;20025;-77
2024/04/11 06:33:22;;;;;;;0.40;0.40;;;11.10;99.90;;;;;;5498061;25;20018;-75
2024/04/11 06:35:52;;;;;;;0.70;0.70;;;11.20;99.90;;;;;;5478443;26;20042;-74
2024/04/11 06:38:23;;;;;;;0.40;0.40;;;11.20;99.90;;;;;;5465425;26;20016;-77
2024/04/11 06:40:53;;;;;;;0.80;0.50;;;11.20;99.90;;;;;;5468762;26;20005;-77
2024/04/11 06:43:21;;;;;;;0.55;0.50;;;11.30;99.90;;;;;;5469462;26;20372;-77
2024/04/11 06:45:51;;;;;;;1.38;0.85;;;11.30;99.90;;;;;;5464216;26;20030;-76
2024/04/11 06:48:19;;;;;;;0.65;0.65;;;11.30;99.90;;;;;;5471942;26;20003;-76
2024/04/11 06:50:46;;;;;;;0.60;0.60;;;11.40;99.90;;;;;;5474230;26;20020;-75
2024/04/11 06:53:17;;;;;;;0.40;0.40;;;11.40;99.90;;;;;;5464173;26;20393;-75
2024/04/11 06:55:46;;;;;;;0.82;0.70;;;11.40;99.90;;;;;;5467205;26;20017;-75
2024/04/11 06:58:20;;;;;;;0.40;0.40;;;11.40;99.90;;;;;;5472514;26;20037;-75
2024/04/11 07:00:58;;;;;;;0.30;0.30;;;11.50;99.90;;;;;;5476055;26;20035;-77
2024/04/11 07:03:26;;;;;;;0.77;0.70;;;11.50;99.90;;;;;;5473741;26;20372;-79
2024/04/11 07:05:59;;;;;;;0.85;0.85;;;11.40;99.90;;;;;;5473224;26;20026;-77
2024/04/11 07:08:33;;;;;;;0.40;0.40;;;11.40;99.90;;;;;;5471052;26;20026;-77
2024/04/11 07:11:20;;;;;;;7.43;0.70;;;11.40;99.90;;;;;;5469084;26;20022;-76
2024/04/11 07:13:50;;;;;;;0.52;0.52;;;11.30;99.90;;;;;;5485985;26;20042;-80
2024/04/11 07:16:20;;;;;;;1.85;0.95;;;11.40;99.90;;;;;;5420120;26;20030;-74
2024/04/11 07:18:54;;;;;;;0.40;0.40;;;11.40;99.90;;;;;;5466844;26;20045;-75
2024/04/11 07:21:25;;;;;;;0.73;0.73;;;11.40;99.90;;;;;;5472732;26;19997;-74
2024/04/11 07:23:54;;;;;;;0.95;0.80;;;11.40;99.90;;;;;;5471485;26;20219;-76
2024/04/11 07:26:22;;;;;;;0.32;0.32;;;11.40;99.90;;;;;;5460908;26;20030;-74
2024/04/11 07:28:50;;;;;;;1.00;0.73;;;11.40;99.90;;;;;;5464036;26;20399;-74
2024/04/11 07:31:17;;;;;;;0.32;0.32;;;11.40;99.90;;;;;;5466237;26;20022;-74
2024/04/11 07:33:48;;;;;;;0.30;0.30;;;11.40;99.90;;;;;;5467237;26;20013;-74
2024/04/11 07:36:22;;;;;;;1.00;1.00;;;11.40;99.90;;;;;;5469824;26;20006;-74
2024/04/11 07:38:52;;;;;;;0.70;0.70;;;11.40;99.90;;;;;;5476429;26;20006;-74
2024/04/11 07:41:20;;;;;;;0.50;0.40;;;11.40;99.90;;;;;;5469320;26;20342;-74
2024/04/11 07:43:57;;;;;;;0.68;0.68;;;11.40;99.90;;;;;;5470650;26;20006;-74
2024/04/11 07:46:28;;;;;;;0.47;0.47;;;11.40;99.90;;;;;;5471406;26;20016;-75
2024/04/11 07:48:56;;;;;;;0.60;0.60;;;11.40;99.90;;;;;;5468422;26;20006;-73
2024/04/11 07:51:23;;;;;;;1.15;1.15;;;11.50;99.90;;;;;;5445002;26;21412;-74
2024/04/11 07:53:51;;;;;;;0.40;0.40;;;11.40;99.90;;;;;;5442036;26;19999;-76
2024/04/11 07:56:25;;;;;;;0.50;0.50;;;11.50;99.90;;;;;;5462625;26;20021;-75
2024/04/11 07:58:55;;;;;;;0.60;0.60;;;11.50;99.90;;;;;;5464241;26;19998;-74
2024/04/11 08:01:30;;;;;;;0.30;0.30;;;11.60;99.90;;;;;;5471004;26;20042;-74
2024/04/11 08:04:03;;;;;;;1.65;0.73;;;11.50;99.90;;;;;;5466843;26;20002;-73
2024/04/11 08:06:33;;;;;;;0.40;0.40;;;11.60;99.90;;;;;;5475604;26;20037;-75
2024/04/11 08:09:00;;;;;;;0.88;0.82;;;11.60;99.90;;;;;;5468184;26;20006;-75
2024/04/11 08:11:30;;;;;;;0.40;0.40;;;11.70;99.90;;;;;;5475969;26;19998;-74
2024/04/11 08:13:57;;;;;;;0.45;0.45;;;11.80;99.90;;;;;;5473564;26;20018;-74
2024/04/11 08:16:26;;;;;;;1.42;0.90;;;11.90;99.90;;;;;;5475997;26;19998;-76
2024/04/11 08:18:54;;;;;;;0.30;0.30;;;12.00;99.90;;;;;;5489985;26;20099;-76
2024/04/11 08:21:22;;;;;;;0.70;0.70;;;12.10;99.90;;;;;;5467721;26;20355;-75
2024/04/11 08:23:49;;;;;;;0.50;0.50;;;12.50;99.90;;;;;;5460229;26;20017;-74
2024/04/11 08:26:16;;;;;;;1.40;1.30;;;12.30;99.90;;;;;;5465521;26;20010;-75
2024/04/11 08:28:43;;;;;;;2.22;0.90;;;12.40;99.90;;;;;;5468826;26;20002;-76
2024/04/11 08:31:14;;;;;;;0.40;0.40;;;12.40;99.90;;;;;;5470363;26;20045;-73
2024/04/11 08:33:42;;;;;;;0.60;0.60;;;12.40;99.90;;;;;;5480819;26;20100;-75
2024/04/11 08:36:09;;;;;;;0.40;0.40;;;12.40;99.90;;;;;;5445296;26;20340;-75
2024/04/11 08:38:40;;;;;;;1.45;1.35;;;12.40;99.90;;;;;;5465503;26;20016;-76
2024/04/11 08:41:12;;;;;;;0.45;0.45;;;12.40;99.90;;;;;;5468596;26;20003;-76
2024/04/11 08:43:40;;;;;;;0.75;0.75;;;12.50;99.90;;;;;;5468508;26;20006;-74
2024/04/11 08:46:09;;;;;;;0.47;0.47;;;12.50;99.90;;;;;;5468094;26;20016;-74
2024/04/11 08:48:38;;;;;;;0.82;0.82;;;12.80;99.90;;;;;;5466864;26;20003;-74
2024/04/11 08:51:15;;;;;;;0.60;0.60;;;12.60;99.90;;;;;;5467301;26;20038;-76
2024/04/11 08:53:46;;;;;;;1.40;1.30;;;12.60;99.90;;;;;;5473750;26;20026;-75
2024/04/11 08:56:17;;;;;;;0.63;0.63;;;12.70;99.90;;;;;;5479737;26;20037;-75
2024/04/11 08:58:45;;;;;;;0.65;0.65;;;12.70;99.90;;;;;;5476434;26;20005;-75
2024/04/11 09:01:15;;;;;;;0.40;0.40;;;12.70;99.90;;;;;;5471271;26;20014;-75
2024/04/11 09:03:46;;;;;;;0.40;0.40;;;12.80;99.90;;;;;;5485242;25;20026;-75
2024/04/11 09:06:13;;;;;;;0.77;0.75;;;12.90;99.90;;;;;;5475890;26;20034;-76
2024/04/11 09:08:41;;;;;;;0.75;0.65;;;12.90;99.90;;;;;;5478108;26;20006;-75
2024/04/11 09:11:10;;;;;;;0.50;0.50;;;12.90;99.90;;;;;;5477908;26;20022;-75
2024/04/11 09:13:37;;;;;;;1.35;1.25;;;12.90;99.90;;;;;;5469560;26;20397;-76
2024/04/11 09:16:07;;;;;;;0.32;0.32;;;12.90;99.90;;;;;;5475387;26;20111;-75
2024/04/11 09:18:34;;;;;;;0.25;0.25;;;12.90;99.90;;;;;;5468619;26;20028;-74
2024/04/11 09:21:05;;;;;;;0.50;0.50;;;12.90;99.90;;;;;;5472299;26;20118;-75
2024/04/11 09:23:47;;;;;;;0.68;0.68;;;12.90;99.90;;;;;;5473939;26;20046;-75
2024/04/11 09:26:14;;;;;;;1.00;0.93;;;12.90;99.90;;;;;;5471245;26;20020;-75
2024/04/11 09:28:43;;;;;;;1.20;1.10;;;12.90;99.90;;;;;;5467293;26;20014;-75
2024/04/11 09:31:10;;;;;;;0.32;0.32;;;12.90;99.90;;;;;;5468151;26;20017;-74
2024/04/11 09:33:39;;;;;;;0.30;0.30;;;12.90;99.90;;;;;;5469124;26;20383;-75
2024/04/11 09:36:11;;;;;;;0.40;0.40;;;12.90;99.90;;;;;;5474518;26;20475;-75
2024/04/11 09:38:42;;;;;;;0.40;0.40;;;13.00;99.90;;;;;;5476847;26;20034;-76
2024/04/11 09:41:11;;;;;;;0.40;0.40;;;13.10;99.90;;;;;;5471459;26;20449;-75
2024/04/11 09:43:40;;;;;;;0.35;0.35;;;13.20;99.90;;;;;;5466224;26;20028;-76
2024/04/11 09:46:08;;;;;;;0.88;0.52;;;13.30;99.90;;;;;;5466235;26;20006;-75
2024/04/11 09:48:38;;;;;;;0.45;0.45;;;13.40;99.90;;;;;;5461226;26;20061;-75
2024/04/11 09:51:10;;;;;;;1.98;1.08;;;13.50;99.90;;;;;;5447135;26;20328;-75
2024/04/11 09:53:37;;;;;;;0.98;0.98;;;13.50;99.90;;;;;;5463411;26;20005;-76
2024/04/11 09:56:06;;;;;;;0.80;0.40;;;13.50;99.90;;;;;;5464329;26;20006;-76
2024/04/11 09:58:38;;;;;;;0.70;0.70;;;13.50;99.90;;;;;;5462647;26;20016;-76
2024/04/11 10:01:31;;;;;;;0.50;0.50;;;13.50;99.90;;;;;;5461601;26;20006;-76
2024/04/11 10:04:00;;;;;;;0.63;0.57;;;13.50;99.90;;;;;;5463615;26;20355;-82
2024/04/11 10:06:29;;;;;;;0.40;0.40;;;13.60;99.90;;;;;;5473668;26;20030;-82
2024/04/11 10:09:11;;;;;;;2.10;1.15;;;13.50;99.90;;;;;;5472578;26;20045;-83
2024/04/11 10:11:45;;;;;;;0.32;0.32;;;13.50;99.90;;;;;;5467954;26;20014;-83
2024/04/11 10:14:20;;;;;;;3.38;1.33;;;13.50;99.90;;;;;;5469305;26;20086;-82
2024/04/11 10:16:48;;;;;;;0.30;0.30;;;13.60;99.90;;;;;;5467171;26;19998;-81
2024/04/11 10:19:26;;;;;;;1.55;1.35;;;13.60;99.90;;;;;;5465241;26;20006;-83
2024/04/11 10:22:04;;;;;;;0.40;0.40;;;13.70;99.90;;;;;;5463480;26;20006;-83
2024/04/11 10:24:37;;;;;;;0.63;0.63;;;13.70;99.90;;;;;;5468212;26;20866;-82
2024/04/11 10:27:11;;;;;;;0.30;0.30;;;13.70;99.90;;;;;;5482819;26;19998;-83
2024/04/11 10:29:46;;;;;;;0.40;0.40;;;13.70;99.90;;;;;;5476351;26;20013;-82
2024/04/11 10:32:15;;;;;;;1.00;1.00;;;13.70;99.90;;;;;;5476710;26;20475;-82
2024/04/11 10:34:47;;;;;;;0.28;0.28;;;13.60;99.90;;;;;;5487604;26;20027;-82
2024/04/11 10:37:23;;;;;;;0.50;0.50;;;13.60;99.90;;;;;;5447935;26;20475;-81
2024/04/11 10:39:54;;;;;;;0.35;0.35;;;13.60;99.90;;;;;;5482225;26;20035;-82
2024/04/11 10:42:36;;;;;;;0.63;0.63;;;13.70;99.90;;;;;;5471835;26;20026;-82
2024/04/11 10:45:19;;;;;;;0.35;0.35;;;13.80;99.90;;;;;;5480578;26;20058;-81
2024/04/11 10:47:46;;;;;;;1.98;1.48;;;13.80;99.90;;;;;;5464449;26;20027;-82
2024/04/11 10:50:14;;;;;;;0.47;0.47;;;13.90;99.90;;;;;;5477775;26;20031;-81
2024/04/11 10:52:46;;;;;;;0.47;0.47;;;14.00;99.90;;;;;;5476342;26;20026;-80
2024/04/11 10:55:26;;;;;;;0.80;0.80;;;14.00;99.90;;;;;;5472151;26;20372;-81
2024/04/11 10:58:13;;;;;;;4.13;0.95;;;14.00;99.90;;;;;;5471785;26;20042;-81
2024/04/11 11:06:25;;;;;;;0.80;0.80;;;14.10;99.90;;;;;;5470520;26;20015;-82
2024/04/11 11:09:12;;;;;;;1.13;0.68;;;14.20;99.90;;;;;;5477677;26;20002;-82
2024/04/11 11:11:44;;;;;;;1.55;1.45;;;14.30;99.90;;;;;;5471657;26;20038;-80
2024/04/11 11:14:17;;;;;;;0.43;0.43;;;14.50;99.90;;;;;;5470942;26;20022;-76
2024/04/11 11:16:44;;;;;;;0.68;0.68;;;14.60;99.90;;;;;;5471904;26;20692;-81
2024/04/11 11:19:12;;;;;;;0.32;0.32;;;14.80;99.90;;;;;;5468869;26;20030;-80
2024/04/11 11:21:42;;;;;;;2.47;1.52;;;15.00;99.90;;;;;;5471516;26;20034;-81
2024/04/11 11:24:15;;;;;;;0.82;0.82;;;15.00;99.90;;;;;;5474733;26;20492;-80
2024/04/11 11:26:46;;;;;;;0.93;0.93;;;14.90;99.90;;;;;;5475242;26;20018;-81
2024/04/11 11:29:20;;;;;;;0.45;0.45;;;14.80;99.90;;;;;;5470162;26;20034;-82
2024/04/11 11:31:50;;;;;;;0.82;0.80;;;14.70;99.90;;;;;;5476633;26;20022;-82
2024/04/11 11:34:27;;;;;;;0.68;0.68;;;14.70;99.90;;;;;;5471266;26;20026;-83
2024/04/11 11:36:59;;;;;;;;;;;14.80;99.90;;;;;;5472552;26;20038;-81
2024/04/11 11:39:28;;;;;;;0.60;0.60;;;14.80;99.90;;;;;;5471209;26;20469;-80
2024/04/11 11:42:19;;;;;;;0.82;0.43;;;14.80;99.90;;;;;;5478789;26;20463;-82
2024/04/11 11:47:45;;;;;;;0.30;0.30;;;14.90;99.90;;;;;;5480790;26;20034;-80
2024/04/11 11:50:22;;;;;;;1.15;1.08;;;14.90;99.90;;;;;;5491370;26;20030;-82
2024/04/11 11:52:50;;;;;;;0.30;0.30;;;14.90;99.90;;;;;;5479044;26;20016;-82
2024/04/11 11:55:17;;;;;;;0.60;0.60;;;14.80;99.90;;;;;;5467731;26;20042;-81
2024/04/11 11:58:02;;;;;;;3.83;2.15;;;14.80;99.90;;;;;;5474509;26;20042;-82
2024/04/11 12:00:33;;;;;;;0.55;0.55;;;14.80;99.90;;;;;;5473744;26;20042;-81
2024/04/11 12:03:11;;;;;;;0.60;0.30;;;14.80;99.90;;;;;;5477484;26;20025;-79
2024/04/11 12:05:39;;;;;;;0.45;0.45;;;14.90;99.90;;;;;;5456398;26;20031;-83
2024/04/11 12:08:06;;;;;;;2.30;1.17;;;15.00;99.90;;;;;;5460484;26;20022;-82
2024/04/11 12:13:35;;;;;;;0.73;0.50;;;15.10;99.90;;;;;;5479347;26;20507;-81
2024/04/11 12:16:05;;;;;;;0.45;0.45;;;15.30;99.90;;;;;;5482277;26;20026;-82
2024/04/11 12:18:32;;;;;;;0.52;0.52;;;15.50;99.90;;;;;;5474332;26;20026;-81
2024/04/11 12:21:02;;;;;;;0.98;0.73;;;15.60;99.90;;;;;;5477482;26;20038;-81
2024/04/11 12:23:34;;;;;;;0.30;0.30;;;15.70;99.90;;;;;;5469963;26;20369;-81
2024/04/11 12:26:02;;;;;;;0.40;0.40;;;15.80;99.90;;;;;;5474012;26;20388;-81
2024/04/11 12:28:31;;;;;;;0.60;0.60;;;15.90;99.90;;;;;;5476249;26;20050;-81
2024/04/11 12:31:02;;;;;;;1.85;0.75;;;16.20;99.90;;;;;;5476613;26;20022;-81
2024/04/11 12:33:31;;;;;;;0.93;0.93;;;16.40;99.90;;;;;;5474864;26;20042;-83
2024/04/11 12:36:37;;;;;;;0.20;0.20;;;16.50;99.90;;;;;;5470292;26;20046;-81
2024/04/11 12:38:48;;;;;;;;;;;16.40;99.90;;;;;;5479236;26;20037;-81
2024/04/11 12:41:15;;;;;;;0.70;0.70;;;16.30;99.90;;;;;;5468815;26;19938;-81
2024/04/11 12:43:44;;;;;;;1.25;1.20;;;16.30;99.90;;;;;;5469406;26;20022;-81
2024/04/11 12:46:11;;;;;;;0.60;0.60;;;16.20;99.90;;;;;;5481224;26;20057;-81
2024/04/11 12:48:40;;;;;;;0.98;0.98;;;16.20;99.90;;;;;;5478686;26;20025;-79
2024/04/11 12:51:11;;;;;;;1.20;1.20;;;16.10;99.90;;;;;;5470345;26;20419;-81
2024/04/11 12:53:40;;;;;;;0.60;0.60;;;16.00;99.90;;;;;;5472405;26;20039;-80
2024/04/11 12:56:07;;;;;;;0.30;0.30;;;15.80;99.90;;;;;;5483254;26;20041;-79
2024/04/11 12:58:41;;;;;;;1.20;1.20;;;15.70;99.90;;;;;;5482308;26;20380;-79
2024/04/11 13:01:12;;;;;;;1.60;0.60;;;15.70;99.90;;;;;;5479110;26;20042;-79
2024/04/11 13:06:22;;;;;;;0.38;0.38;;;15.80;99.90;;;;;;5471220;26;20482;-79
2024/04/11 13:08:49;;;;;;;0.40;0.40;;;15.80;99.90;;;;;;5473398;26;20020;-80
2024/04/11 13:11:36;;;;;;;0.50;0.50;;;15.80;99.90;;;;;;5467380;26;20006;-80
2024/04/11 13:14:10;;;;;;;4.22;1.77;;;15.80;99.90;;;;;;5470684;26;20018;-82
2024/04/11 13:16:40;;;;;;;0.52;0.52;;;15.80;99.90;;;;;;5476669;26;20379;-80